Time;durP1;ratioP1;P1;durP2;ratioP2;P2;SDS_P1;SDS_P2;PMS_P1;PMS_P2;Temp;Humidity;BMP_temperature;BMP_pressure;BME280_temperature;BME280_humidity;BME280_pressure;Samples;Min_cycle;Max_cycle;Signal;HPM_P1;HPM_P2
2022/12/10 00:01:10;;;;;;;33.92;20.92;;;-0.90;99.90;;;;;;5019031;28;20328;-79
2022/12/10 00:03:36;;;;;;;31.52;19.80;;;-0.90;99.90;;;;;;5059557;28;20226;-80
2022/12/10 00:06:04;;;;;;;34.80;20.65;;;-0.90;99.90;;;;;;5035113;28;20178;-80
2022/12/10 00:08:30;;;;;;;41.63;23.63;;;-1.00;99.90;;;;;;5034085;28;20316;-79
2022/12/10 00:10:56;;;;;;;34.60;21.90;;;-1.10;99.90;;;;;;5052702;28;20227;-81
2022/12/10 00:13:22;;;;;;;34.03;21.98;;;-1.20;99.90;;;;;;5053096;28;20208;-80
2022/12/10 00:15:48;;;;;;;30.67;19.30;;;-1.20;99.90;;;;;;5040456;28;20201;-79
2022/12/10 00:18:13;;;;;;;29.30;18.87;;;-1.30;99.90;;;;;;5033713;28;20554;-79
2022/12/10 00:20:39;;;;;;;33.77;20.17;;;-1.30;99.90;;;;;;5021922;28;20193;-79
2022/12/10 00:23:04;;;;;;;30.90;20.53;;;-1.30;99.90;;;;;;5037896;28;20201;-79
2022/12/10 00:25:32;;;;;;;35.27;20.53;;;-1.40;99.90;;;;;;5034101;28;20193;-79
2022/12/10 00:27:58;;;;;;;31.05;19.20;;;-1.40;99.90;;;;;;5039470;28;20330;-79
2022/12/10 00:30:23;;;;;;;29.57;18.87;;;-1.40;99.90;;;;;;5034140;28;20240;-78
2022/12/10 00:32:49;;;;;;;32.17;19.70;;;-1.50;99.90;;;;;;5038224;28;20182;-78
2022/12/10 00:35:15;;;;;;;36.63;19.17;;;-1.50;99.90;;;;;;5038129;28;20442;-79
2022/12/10 00:37:40;;;;;;;29.80;19.63;;;-1.60;99.90;;;;;;5055576;28;21028;-80
2022/12/10 00:40:06;;;;;;;32.60;20.30;;;-1.60;99.90;;;;;;5038210;28;20218;-80
2022/12/10 00:42:32;;;;;;;31.13;19.70;;;-1.60;99.90;;;;;;5038481;28;20188;-79
2022/12/10 00:44:57;;;;;;;30.03;18.73;;;-1.70;99.90;;;;;;5005289;28;20177;-79
2022/12/10 00:47:23;;;;;;;32.17;20.80;;;-1.70;99.90;;;;;;5038067;28;20182;-80
2022/12/10 00:49:49;;;;;;;35.67;20.90;;;-1.70;99.90;;;;;;5022585;28;20186;-80
2022/12/10 00:52:14;;;;;;;30.60;20.67;;;-1.80;99.90;;;;;;5021988;28;20216;-79
2022/12/10 00:54:40;;;;;;;30.27;17.93;;;-1.80;99.90;;;;;;5020820;28;20185;-78
2022/12/10 00:57:06;;;;;;;27.13;19.10;;;-1.80;99.90;;;;;;5056174;28;20192;-78
2022/12/10 00:59:32;;;;;;;30.63;18.30;;;-1.80;99.90;;;;;;5055804;28;20190;-78
2022/12/10 01:01:57;;;;;;;27.10;18.93;;;-1.80;99.90;;;;;;5005844;28;20427;-78
2022/12/10 01:04:23;;;;;;;33.17;19.37;;;-1.80;99.90;;;;;;5037925;28;20584;-79
2022/12/10 01:06:51;;;;;;;33.23;17.97;;;-1.90;99.90;;;;;;5021651;28;20182;-79
2022/12/10 01:09:27;;;;;;;34.42;19.15;;;-2.00;99.90;;;;;;5021814;28;20239;-78
2022/12/10 01:11:54;;;;;;;30.05;17.90;;;-2.00;99.90;;;;;;5055525;28;20205;-79
2022/12/10 01:14:30;;;;;;;31.65;18.45;;;-2.10;99.90;;;;;;5055882;28;20183;-79
2022/12/10 01:16:58;;;;;;;29.30;20.30;;;-2.10;99.90;;;;;;5038011;28;20179;-78
2022/12/10 01:19:24;;;;;;;30.85;18.05;;;-2.10;99.90;;;;;;5056072;28;20224;-80
2022/12/10 01:21:51;;;;;;;36.57;21.70;;;-2.10;99.90;;;;;;5021612;28;20185;-80
2022/12/10 01:24:16;;;;;;;35.92;19.88;;;-2.20;99.90;;;;;;5037507;28;20235;-78
2022/12/10 01:26:42;;;;;;;35.43;21.13;;;-2.20;99.90;;;;;;5055848;28;20181;-78
2022/12/10 01:29:10;;;;;;;32.00;18.27;;;-2.20;99.90;;;;;;5039114;28;20189;-78
2022/12/10 01:31:37;;;;;;;35.17;20.00;;;-2.30;99.90;;;;;;5038296;28;20221;-79
2022/12/10 01:34:05;;;;;;;33.83;20.15;;;-2.40;99.90;;;;;;5055430;28;20185;-79
2022/12/10 01:36:35;;;;;;;32.53;18.60;;;-2.40;99.90;;;;;;5037272;28;20195;-79
2022/12/10 01:39:02;;;;;;;28.65;17.80;;;-2.40;99.90;;;;;;5055874;28;20196;-79
2022/12/10 01:41:34;;;;;;;32.20;19.10;;;-2.50;99.90;;;;;;5037281;28;20212;-78
2022/12/10 01:44:08;;;;;;;30.17;18.35;;;-2.50;99.90;;;;;;5038122;28;20173;-78
2022/12/10 01:46:36;;;;;;;30.98;17.08;;;-2.50;99.90;;;;;;5040583;28;20174;-78
2022/12/10 01:49:05;;;;;;;31.75;19.40;;;-2.50;99.90;;;;;;5059411;28;20179;-79
2022/12/10 01:51:34;;;;;;;31.60;19.10;;;-2.60;99.90;;;;;;5058817;28;20213;-79
2022/12/10 01:54:00;;;;;;;31.05;18.48;;;-2.60;99.90;;;;;;5058950;28;20177;-78
2022/12/10 01:56:26;;;;;;;32.03;19.90;;;-2.60;99.90;;;;;;5041467;28;20197;-81
2022/12/10 01:58:54;;;;;;;35.23;18.60;;;-2.60;99.90;;;;;;5041415;28;20185;-78
2022/12/10 02:01:52;;;;;;;30.65;17.13;;;-2.60;99.90;;;;;;5058531;28;20184;-78
2022/12/10 02:04:45;;;;;;;33.15;19.67;;;-2.70;99.90;;;;;;5058948;28;20201;-78
2022/12/10 02:07:27;;;;;;;34.28;19.58;;;-2.70;99.90;;;;;;5058237;28;20274;-79
2022/12/10 02:10:14;;;;;;;35.35;20.23;;;-2.70;99.90;;;;;;5040862;28;20555;-78
2022/12/10 02:13:01;;;;;;;26.75;17.83;;;-2.70;99.90;;;;;;5057795;28;20161;-78
2022/12/10 02:15:34;;;;;;;25.42;15.75;;;-2.70;99.90;;;;;;5040484;28;20177;-80
2022/12/10 02:18:08;;;;;;;35.60;18.98;;;-2.80;99.90;;;;;;5058703;28;20206;-79
2022/12/10 02:21:03;;;;;;;34.78;20.95;;;-2.80;99.90;;;;;;5040413;28;20643;-78
2022/12/10 02:23:41;;;;;;;31.40;18.67;;;-2.80;99.90;;;;;;5055359;28;20189;-78
2022/12/10 02:26:20;;;;;;;30.27;18.15;;;-2.80;99.90;;;;;;5057911;28;20170;-79
2022/12/10 02:29:04;;;;;;;33.70;19.02;;;-2.70;99.90;;;;;;5058225;28;20244;-78
2022/12/10 02:31:31;;;;;;;33.30;19.48;;;-2.70;99.90;;;;;;5040024;28;20716;-79
2022/12/10 02:34:00;;;;;;;34.72;20.85;;;-2.60;99.90;;;;;;5058586;28;20215;-78
2022/12/10 02:36:32;;;;;;;31.42;18.70;;;-2.60;99.90;;;;;;5057876;28;20256;-79
2022/12/10 02:39:01;;;;;;;36.08;19.50;;;-2.50;99.90;;;;;;5058029;28;20190;-78
2022/12/10 02:41:34;;;;;;;34.53;18.75;;;-2.50;99.90;;;;;;5057724;28;20177;-78
2022/12/10 02:44:04;;;;;;;35.97;21.13;;;-2.40;99.90;;;;;;5057674;28;20213;-78
2022/12/10 02:46:32;;;;;;;36.53;20.67;;;-2.30;99.90;;;;;;5040235;28;20177;-79
2022/12/10 02:48:59;;;;;;;36.88;20.15;;;-2.20;99.90;;;;;;5040008;28;20185;-79
2022/12/10 02:51:25;;;;;;;31.73;18.48;;;-2.10;99.90;;;;;;5057777;28;20592;-80
2022/12/10 02:54:02;;;;;;;36.87;21.10;;;-2.10;99.90;;;;;;5039538;28;20182;-79
2022/12/10 02:56:45;;;;;;;34.80;19.00;;;-2.10;99.90;;;;;;5039452;28;20177;-80
2022/12/10 02:59:25;;;;;;;31.17;19.00;;;-2.00;99.90;;;;;;5039433;28;20644;-79
2022/12/10 03:01:57;;;;;;;26.42;17.40;;;-1.90;99.90;;;;;;5039905;28;20197;-79
2022/12/10 03:04:32;;;;;;;35.45;18.75;;;-1.80;99.90;;;;;;5039737;28;20205;-79
2022/12/10 03:07:06;;;;;;;34.42;22.05;;;-1.70;99.90;;;;;;5039549;28;20271;-79
2022/12/10 03:09:47;;;;;;;40.67;21.83;;;-1.70;99.90;;;;;;5056836;28;20620;-79
2022/12/10 03:12:27;;;;;;;41.47;22.58;;;-1.50;99.90;;;;;;5039647;28;20200;-79
2022/12/10 03:15:00;;;;;;;45.08;23.65;;;-1.40;99.90;;;;;;5023216;28;20606;-79
2022/12/10 03:17:28;;;;;;;43.63;23.90;;;-1.50;99.90;;;;;;5057244;28;20188;-79
2022/12/10 03:19:56;;;;;;;41.28;21.98;;;-1.50;99.90;;;;;;5039009;28;20533;-79
2022/12/10 03:22:22;;;;;;;42.78;21.85;;;-1.40;99.90;;;;;;5057079;28;20178;-79
2022/12/10 03:24:48;;;;;;;39.10;22.07;;;-1.40;99.90;;;;;;5039203;28;20671;-79
2022/12/10 03:27:17;;;;;;;37.38;21.98;;;-1.30;99.90;;;;;;5039138;28;20233;-80
2022/12/10 03:29:47;;;;;;;36.97;21.55;;;-1.30;99.90;;;;;;5038766;28;20182;-79
2022/12/10 03:32:15;;;;;;;50.03;25.40;;;-1.20;99.90;;;;;;5056596;28;20674;-80
2022/12/10 03:34:42;;;;;;;47.17;25.85;;;-1.20;99.90;;;;;;5022177;28;20203;-80
2022/12/10 03:37:07;;;;;;;45.63;26.70;;;-1.20;99.90;;;;;;5056376;28;20201;-79
2022/12/10 03:39:34;;;;;;;47.20;26.90;;;-1.20;99.90;;;;;;5038527;28;20181;-80
2022/12/10 03:41:59;;;;;;;51.85;25.27;;;-1.10;99.90;;;;;;5038934;28;20558;-79
2022/12/10 03:44:30;;;;;;;53.23;29.20;;;-1.10;99.90;;;;;;5057152;28;20234;-79
2022/12/10 03:46:56;;;;;;;70.88;29.65;;;-1.10;99.90;;;;;;5038850;28;20259;-79
2022/12/10 03:49:22;;;;;;;46.40;26.50;;;-1.10;99.90;;;;;;5038971;28;20177;-79
2022/12/10 03:51:47;;;;;;;55.23;27.30;;;-1.10;99.90;;;;;;5021843;28;20661;-79
2022/12/10 03:54:13;;;;;;;56.53;30.70;;;-1.10;99.90;;;;;;5006421;28;20212;-79
2022/12/10 03:56:38;;;;;;;49.60;27.53;;;-1.10;99.90;;;;;;5056914;28;20181;-79
2022/12/10 03:59:04;;;;;;;49.63;27.00;;;-1.00;99.90;;;;;;5039190;28;20184;-79
2022/12/10 04:01:29;;;;;;;55.37;29.07;;;-1.00;99.90;;;;;;5039292;28;20288;-79
2022/12/10 04:03:55;;;;;;;55.63;29.57;;;-1.00;99.90;;;;;;5038745;28;20188;-79
2022/12/10 04:06:21;;;;;;;49.83;25.23;;;-1.00;99.90;;;;;;5039274;28;20213;-79
2022/12/10 04:08:48;;;;;;;54.70;29.10;;;-1.10;99.90;;;;;;5038481;28;20587;-79
2022/12/10 04:11:14;;;;;;;59.05;28.05;;;-1.10;99.90;;;;;;5056677;28;20669;-79
2022/12/10 04:16:29;;;;;;;52.17;26.08;;;-1.20;99.90;;;;;;5041953;28;20223;-79
2022/12/10 04:19:15;;;;;;;56.55;29.80;;;-1.20;99.90;;;;;;5038264;28;20185;-80
2022/12/10 04:27:13;;;;;;;63.40;28.58;;;-1.30;99.90;;;;;;5056316;28;20272;-79
2022/12/10 04:29:39;;;;;;;59.40;27.95;;;-1.30;99.90;;;;;;5055981;28;20204;-79
2022/12/10 04:32:05;;;;;;;64.70;32.87;;;-1.30;99.90;;;;;;5022329;28;20213;-79
2022/12/10 04:34:31;;;;;;;57.92;31.02;;;-1.40;99.90;;;;;;5056376;28;20756;-79
2022/12/10 04:36:58;;;;;;;63.93;31.73;;;-1.40;99.90;;;;;;5056883;28;20174;-79
2022/12/10 04:39:24;;;;;;;65.63;33.60;;;-1.30;99.90;;;;;;5038390;28;20417;-79
2022/12/10 04:41:50;;;;;;;62.80;33.03;;;-1.40;99.90;;;;;;5037942;28;20187;-79
2022/12/10 04:44:16;;;;;;;65.20;32.50;;;-1.40;99.90;;;;;;5038363;28;20173;-79
2022/12/10 04:46:41;;;;;;;62.67;33.00;;;-1.30;99.90;;;;;;5038383;28;20450;-79
2022/12/10 04:49:07;;;;;;;67.50;33.23;;;-1.30;99.90;;;;;;5038429;28;20185;-79
2022/12/10 04:51:33;;;;;;;57.00;30.90;;;-1.30;99.90;;;;;;5056394;28;20208;-79
2022/12/10 04:53:58;;;;;;;65.87;33.30;;;-1.40;99.90;;;;;;5037944;28;20652;-79
2022/12/10 04:56:24;;;;;;;59.33;34.13;;;-1.40;99.90;;;;;;5056514;28;20558;-79
2022/12/10 04:58:50;;;;;;;57.40;30.23;;;-1.30;99.90;;;;;;5037931;28;20247;-79
2022/12/10 05:01:17;;;;;;;50.50;29.80;;;-1.30;99.90;;;;;;5004679;28;20233;-79
2022/12/10 05:03:43;;;;;;;47.53;28.23;;;-1.30;99.90;;;;;;5055769;28;20177;-80
2022/12/10 05:06:11;;;;;;;56.00;31.43;;;-1.30;99.90;;;;;;5022509;28;20190;-79
2022/12/10 05:08:38;;;;;;;60.53;29.88;;;-1.30;99.90;;;;;;5055542;28;20236;-81
2022/12/10 05:11:12;;;;;;;57.92;31.02;;;-1.30;99.90;;;;;;5038337;28;20237;-79
2022/12/10 05:13:39;;;;;;;61.38;32.08;;;-1.20;99.90;;;;;;5037952;28;20188;-80
2022/12/10 05:16:07;;;;;;;54.17;29.13;;;-1.20;99.90;;;;;;5055817;28;20177;-79
2022/12/10 05:18:33;;;;;;;52.22;27.90;;;-1.30;99.90;;;;;;5055875;28;20188;-79
2022/12/10 05:21:00;;;;;;;58.58;29.30;;;-1.40;99.90;;;;;;5039870;28;20209;-79
2022/12/10 05:23:28;;;;;;;62.60;32.05;;;-1.30;99.90;;;;;;5025444;28;20189;-80
2022/12/10 05:26:12;;;;;;;61.25;30.42;;;-1.20;99.90;;;;;;5042329;28;20201;-79
2022/12/10 05:28:46;;;;;;;60.72;30.15;;;-1.20;99.90;;;;;;5041510;28;20182;-81
2022/12/10 05:31:18;;;;;;;59.28;27.52;;;-1.20;99.90;;;;;;5041673;28;20193;-80
2022/12/10 05:33:44;;;;;;;50.80;27.15;;;-1.30;99.90;;;;;;5041053;28;20187;-79
2022/12/10 05:36:12;;;;;;;52.43;29.60;;;-1.20;99.90;;;;;;5059543;28;20171;-79
2022/12/10 05:38:39;;;;;;;57.88;29.15;;;-1.30;99.90;;;;;;5059683;28;20423;-79
2022/12/10 05:41:08;;;;;;;50.75;28.98;;;-1.30;99.90;;;;;;5025192;28;20193;-79
2022/12/10 05:43:33;;;;;;;54.88;27.10;;;-1.30;99.90;;;;;;5025399;28;20252;-79
2022/12/10 05:46:05;;;;;;;53.83;26.90;;;-1.30;99.90;;;;;;5041586;28;20565;-79
2022/12/10 05:48:31;;;;;;;57.83;29.25;;;-1.20;99.90;;;;;;5059691;28;20170;-80
2022/12/10 05:50:57;;;;;;;57.53;27.15;;;-1.20;99.90;;;;;;5059077;28;20200;-79
2022/12/10 05:53:23;;;;;;;66.73;30.97;;;-1.30;99.90;;;;;;5041342;28;20201;-79
2022/12/10 05:55:49;;;;;;;65.60;31.40;;;-1.20;99.90;;;;;;5059213;28;20418;-79
2022/12/10 05:58:15;;;;;;;68.47;31.87;;;-1.30;99.90;;;;;;5008629;28;20677;-79
2022/12/10 06:00:41;;;;;;;69.13;33.77;;;-1.40;99.90;;;;;;5024392;28;20596;-81
2022/12/10 06:03:07;;;;;;;63.42;30.30;;;-1.30;99.90;;;;;;5058842;28;20466;-79
2022/12/10 06:05:38;;;;;;;59.13;29.00;;;-1.20;99.90;;;;;;5040777;28;20173;-79
2022/12/10 06:08:04;;;;;;;54.78;29.33;;;-1.00;99.90;;;;;;5024036;28;20592;-79
2022/12/10 06:10:30;;;;;;;63.50;30.88;;;-1.00;99.90;;;;;;5024896;28;20247;-79
2022/12/10 06:12:56;;;;;;;62.83;31.57;;;-1.10;99.90;;;;;;5041101;28;20572;-79
2022/12/10 06:15:21;;;;;;;62.10;29.63;;;-1.20;99.90;;;;;;5023996;28;20181;-79
2022/12/10 06:17:47;;;;;;;61.70;30.30;;;-1.10;99.90;;;;;;5023740;28;20178;-79
2022/12/10 06:20:12;;;;;;;65.17;30.63;;;-1.10;99.90;;;;;;5024361;28;20542;-79
2022/12/10 06:22:38;;;;;;;64.63;32.80;;;-1.10;99.90;;;;;;5040349;28;20189;-79
2022/12/10 06:25:05;;;;;;;64.13;33.60;;;-1.20;99.90;;;;;;5024920;28;20595;-79
2022/12/10 06:27:31;;;;;;;65.95;30.23;;;-1.20;99.90;;;;;;5042203;28;20208;-79
2022/12/10 06:29:57;;;;;;;67.57;32.90;;;-1.10;99.90;;;;;;5040302;28;20264;-79
2022/12/10 06:32:23;;;;;;;65.43;31.80;;;-1.20;99.90;;;;;;5057512;28;20444;-79
2022/12/10 06:34:48;;;;;;;66.97;32.73;;;-1.00;99.90;;;;;;5023553;28;20427;-79
2022/12/10 06:37:14;;;;;;;77.93;35.30;;;-1.00;99.90;;;;;;5040687;28;20178;-80
2022/12/10 06:39:39;;;;;;;71.90;33.33;;;-1.00;99.90;;;;;;5023973;28;20197;-80
2022/12/10 06:42:05;;;;;;;71.80;32.20;;;-0.90;99.90;;;;;;5023451;28;20185;-79
2022/12/10 06:44:31;;;;;;;66.83;33.00;;;-0.90;99.90;;;;;;5040514;28;20182;-79
2022/12/10 06:46:56;;;;;;;73.40;34.17;;;-0.80;99.90;;;;;;5023818;28;20185;-79
2022/12/10 06:49:22;;;;;;;58.50;31.47;;;-0.80;99.90;;;;;;5023796;28;20628;-80
2022/12/10 06:51:48;;;;;;;72.90;34.30;;;-0.80;99.90;;;;;;5039716;28;20386;-79
2022/12/10 06:54:13;;;;;;;71.27;32.57;;;-0.80;99.90;;;;;;5023877;28;20189;-79
2022/12/10 06:56:39;;;;;;;68.77;34.33;;;-0.70;99.90;;;;;;5057790;28;20202;-79
2022/12/10 06:59:08;;;;;;;70.93;34.00;;;-0.70;99.90;;;;;;5023167;28;20185;-80
2022/12/10 07:01:34;;;;;;;65.85;30.63;;;-0.80;99.90;;;;;;5045310;28;20212;-80
2022/12/10 07:03:59;;;;;;;83.23;36.13;;;-0.90;99.90;;;;;;5003823;28;20615;-79
2022/12/10 07:06:27;;;;;;;80.60;34.83;;;-0.90;99.90;;;;;;5020265;28;20213;-79
2022/12/10 07:08:54;;;;;;;65.82;33.38;;;-0.90;99.90;;;;;;5037482;28;20236;-79
2022/12/10 07:11:22;;;;;;;73.65;34.95;;;-0.90;99.90;;;;;;5020239;28;20202;-80
2022/12/10 07:13:48;;;;;;;76.25;35.05;;;-0.90;99.90;;;;;;5037707;28;20225;-80
2022/12/10 07:16:15;;;;;;;75.00;32.53;;;-0.90;99.90;;;;;;5037268;28;20623;-79
2022/12/10 07:18:41;;;;;;;78.60;34.67;;;-0.90;99.90;;;;;;5003020;28;20213;-79
2022/12/10 07:21:22;;;;;;;77.17;35.57;;;-1.00;99.90;;;;;;5003005;28;20662;-79
2022/12/10 07:23:48;;;;;;;70.15;32.70;;;-0.90;99.90;;;;;;5037774;28;20439;-79
2022/12/10 07:26:14;;;;;;;89.72;35.88;;;-1.00;99.90;;;;;;5019460;28;20225;-80
2022/12/10 07:28:40;;;;;;;76.00;37.07;;;-0.90;99.90;;;;;;5037017;28;20647;-78
2022/12/10 07:31:07;;;;;;;72.37;35.90;;;-0.90;99.90;;;;;;5037326;28;20457;-78
2022/12/10 07:33:33;;;;;;;76.78;32.72;;;-0.90;99.90;;;;;;5036977;28;20840;-79
2022/12/10 07:36:02;;;;;;;75.23;32.97;;;-1.00;99.90;;;;;;5020056;28;20202;-80
2022/12/10 07:38:28;;;;;;;71.95;31.88;;;-1.00;99.90;;;;;;5019778;28;20436;-79
2022/12/10 07:40:53;;;;;;;75.00;32.67;;;-1.00;99.90;;;;;;5019421;28;20186;-79
2022/12/10 07:43:19;;;;;;;77.60;35.23;;;-0.90;99.90;;;;;;5019278;28;20261;-79
2022/12/10 07:45:45;;;;;;;82.47;35.67;;;-1.00;99.90;;;;;;5036745;28;20194;-79
2022/12/10 07:48:10;;;;;;;75.43;34.00;;;-1.00;99.90;;;;;;5036319;28;20241;-79
2022/12/10 07:50:36;;;;;;;85.13;32.60;;;-1.00;99.90;;;;;;5018460;28;20615;-79
2022/12/10 07:53:02;;;;;;;95.67;39.60;;;-0.90;99.90;;;;;;5019012;28;20181;-79
2022/12/10 07:55:27;;;;;;;82.33;37.20;;;-0.90;99.90;;;;;;4986182;28;20516;-79
2022/12/10 07:57:53;;;;;;;88.07;37.77;;;-0.90;99.90;;;;;;5018254;28;20186;-79
2022/12/10 08:00:19;;;;;;;92.20;36.33;;;-0.90;99.90;;;;;;5019115;28;20318;-79
2022/12/10 08:02:44;;;;;;;86.90;37.13;;;-0.80;99.90;;;;;;5019063;28;20218;-80
2022/12/10 08:05:10;;;;;;;86.70;35.93;;;-0.80;99.90;;;;;;5002504;28;20282;-79
2022/12/10 08:07:36;;;;;;;78.22;35.20;;;-0.90;99.90;;;;;;5036391;28;20237;-79
2022/12/10 08:10:02;;;;;;;86.40;36.10;;;-0.80;99.90;;;;;;5018641;28;20634;-79
2022/12/10 08:12:27;;;;;;;85.13;34.70;;;-0.70;99.90;;;;;;5018893;28;20188;-79
2022/12/10 08:14:53;;;;;;;89.67;37.80;;;-0.80;99.90;;;;;;4985323;28;20273;-79
2022/12/10 08:17:19;;;;;;;87.13;38.30;;;-0.70;99.90;;;;;;5002272;28;20526;-79
2022/12/10 08:19:44;;;;;;;83.17;33.40;;;-0.70;99.90;;;;;;5002315;28;20189;-79
2022/12/10 08:22:10;;;;;;;86.63;35.67;;;-0.90;99.90;;;;;;5036322;28;20190;-79
2022/12/10 08:24:35;;;;;;;86.17;35.23;;;-0.90;99.90;;;;;;5002540;28;20261;-79
2022/12/10 08:27:01;;;;;;;76.23;33.33;;;-0.90;99.90;;;;;;5035484;28;20514;-80
2022/12/10 08:29:26;;;;;;;70.67;31.57;;;-0.90;99.90;;;;;;5002569;28;20174;-79
2022/12/10 08:31:52;;;;;;;69.33;34.57;;;-0.90;99.90;;;;;;5035574;28;20658;-79
2022/12/10 08:34:18;;;;;;;76.00;34.07;;;-0.80;99.90;;;;;;5018783;28;20186;-79
2022/12/10 08:36:45;;;;;;;77.60;36.08;;;-0.80;99.90;;;;;;5018771;28;20573;-78
2022/12/10 08:39:14;;;;;;;77.95;33.85;;;-0.80;99.90;;;;;;5002376;28;20196;-79
2022/12/10 08:41:41;;;;;;;76.43;33.15;;;-0.60;99.90;;;;;;5019525;28;20190;-79
2022/12/10 08:44:06;;;;;;;91.90;36.55;;;-0.80;99.90;;;;;;5036752;28;20185;-78
2022/12/10 08:46:32;;;;;;;81.10;33.23;;;-0.80;99.90;;;;;;5022645;28;20623;-78
2022/12/10 08:48:58;;;;;;;72.37;32.43;;;-0.80;99.90;;;;;;5002201;28;20220;-79
2022/12/10 08:51:24;;;;;;;80.37;33.93;;;-0.70;99.90;;;;;;5035981;28;20574;-79
2022/12/10 08:53:50;;;;;;;84.77;35.20;;;-0.80;99.90;;;;;;5036018;28;20899;-80
2022/12/10 08:56:15;;;;;;;77.73;36.07;;;-0.60;99.90;;;;;;5003697;28;20503;-79
2022/12/10 08:58:41;;;;;;;77.10;33.13;;;-0.60;99.90;;;;;;5039194;28;20185;-79
2022/12/10 09:01:15;;;;;;;86.47;37.37;;;-0.60;99.90;;;;;;5021215;28;20665;-80
2022/12/10 09:03:41;;;;;;;85.10;35.03;;;-0.70;99.90;;;;;;5038984;28;20177;-81
2022/12/10 09:06:10;;;;;;;82.67;33.43;;;-0.60;99.90;;;;;;5020933;28;20175;-80
2022/12/10 09:08:36;;;;;;;99.57;38.28;;;-0.70;99.90;;;;;;5020972;28;20237;-80
2022/12/10 09:11:15;;;;;;;80.17;35.03;;;-0.60;99.90;;;;;;5004525;28;20563;-80
2022/12/10 09:13:41;;;;;;;74.78;32.47;;;-0.60;99.90;;;;;;5038771;28;20167;-81
2022/12/10 09:16:07;;;;;;;94.03;35.78;;;-0.60;99.90;;;;;;5038755;28;20186;-81
2022/12/10 09:18:32;;;;;;;77.33;34.47;;;-0.40;99.90;;;;;;5021110;28;20232;-80
2022/12/10 09:20:58;;;;;;;76.73;37.37;;;-0.50;99.90;;;;;;5020802;28;20206;-80
2022/12/10 09:23:24;;;;;;;85.53;35.40;;;-0.50;99.90;;;;;;5021041;28;20273;-80
2022/12/10 09:25:49;;;;;;;79.07;33.83;;;-0.50;99.90;;;;;;5020979;28;20190;-80
2022/12/10 09:28:15;;;;;;;81.83;34.17;;;-0.40;99.90;;;;;;5020926;28;20507;-81
2022/12/10 09:30:41;;;;;;;72.83;34.73;;;-0.30;99.90;;;;;;5004847;28;20620;-79
2022/12/10 09:33:07;;;;;;;85.20;33.83;;;-0.40;99.90;;;;;;5038545;28;20417;-81
2022/12/10 09:35:33;;;;;;;83.17;35.47;;;-0.40;99.90;;;;;;4988725;28;20623;-80
2022/12/10 09:37:58;;;;;;;80.43;32.17;;;-0.50;99.90;;;;;;5020708;28;20186;-80
2022/12/10 09:40:41;;;;;;;83.87;33.73;;;-0.40;99.90;;;;;;5038902;28;20419;-81
2022/12/10 09:43:14;;;;;;;73.00;33.90;;;-0.40;99.90;;;;;;5047058;28;20504;-81
2022/12/10 09:45:52;;;;;;;75.57;34.97;;;-0.30;99.90;;;;;;5058779;28;20166;-80
2022/12/10 09:48:33;;;;;;;77.32;34.13;;;-0.30;99.90;;;;;;5040176;28;20633;-80
2022/12/10 09:51:12;;;;;;;75.22;34.33;;;-0.30;99.90;;;;;;5039808;28;20300;-81
2022/12/10 09:53:39;;;;;;;80.50;30.27;;;-0.30;99.90;;;;;;5040379;28;20268;-81
2022/12/10 09:56:13;;;;;;;61.88;28.80;;;-0.20;99.90;;;;;;5040228;28;20182;-81
2022/12/10 09:58:39;;;;;;;73.38;32.45;;;-0.10;99.90;;;;;;5039700;28;20200;-81
2022/12/10 10:01:05;;;;;;;76.40;30.40;;;-0.10;99.90;;;;;;5033106;28;20656;-81
2022/12/10 10:03:38;;;;;;;60.90;27.15;;;0.00;99.90;;;;;;5019835;28;20207;-81
2022/12/10 10:06:04;;;;;;;67.55;29.20;;;0.00;99.90;;;;;;5037354;28;20168;-81
2022/12/10 10:08:41;;;;;;;69.43;29.38;;;0.10;99.90;;;;;;5019450;28;20227;-81
2022/12/10 10:11:18;;;;;;;56.90;25.35;;;0.10;99.90;;;;;;5019551;28;20724;-80
2022/12/10 10:13:57;;;;;;;51.97;24.23;;;0.10;99.90;;;;;;5019775;28;20570;-83
2022/12/10 10:16:33;;;;;;;56.40;28.30;;;0.10;99.90;;;;;;5020474;28;20634;-82
2022/12/10 10:19:05;;;;;;;58.13;27.85;;;0.00;99.90;;;;;;5037347;28;20169;-83
2022/12/10 10:21:37;;;;;;;56.67;25.50;;;0.00;99.90;;;;;;5037345;28;20513;-82
2022/12/10 10:24:06;;;;;;;57.75;26.77;;;-0.10;99.90;;;;;;5037291;28;20217;-82
2022/12/10 10:26:32;;;;;;;58.70;26.13;;;0.00;99.90;;;;;;5019570;28;20227;-81
2022/12/10 10:29:01;;;;;;;50.03;23.80;;;0.00;99.90;;;;;;5018832;28;20187;-83
2022/12/10 10:31:30;;;;;;;61.80;27.25;;;0.00;99.90;;;;;;5036821;28;20488;-83
2022/12/10 10:33:58;;;;;;;56.22;26.33;;;-0.10;99.90;;;;;;5037213;28;20178;-82
2022/12/10 10:36:27;;;;;;;50.50;25.98;;;0.10;99.90;;;;;;5019233;28;20233;-83
2022/12/10 10:38:53;;;;;;;62.65;26.15;;;0.20;99.90;;;;;;5018933;28;20184;-83
2022/12/10 10:41:19;;;;;;;59.77;26.10;;;0.10;99.90;;;;;;5018912;28;20178;-81
2022/12/10 10:43:45;;;;;;;57.15;27.70;;;0.20;99.90;;;;;;5019344;28;20414;-83
2022/12/10 10:46:12;;;;;;;51.97;25.30;;;0.20;99.90;;;;;;5036319;28;20173;-82
2022/12/10 10:48:38;;;;;;;55.47;25.50;;;0.40;99.90;;;;;;5036512;28;20175;-83
2022/12/10 10:51:19;;;;;;;50.95;26.23;;;0.40;99.90;;;;;;5036515;28;20206;-82
2022/12/10 10:53:47;;;;;;;51.78;24.98;;;0.50;99.90;;;;;;5036795;28;20175;-82
2022/12/10 10:56:29;;;;;;;57.35;25.88;;;0.40;99.90;;;;;;5018814;28;20178;-83
2022/12/10 10:59:00;;;;;;;60.80;28.85;;;0.50;99.90;;;;;;5018996;28;20187;-83
2022/12/10 11:01:43;;;;;;;59.30;25.23;;;0.40;99.90;;;;;;5036907;28;20173;-82
2022/12/10 11:04:09;;;;;;;59.78;25.40;;;0.30;99.90;;;;;;5018650;28;20177;-82
2022/12/10 11:06:35;;;;;;;50.73;23.63;;;0.50;99.90;;;;;;5018442;28;20180;-83
2022/12/10 11:09:01;;;;;;;51.27;24.90;;;0.50;99.90;;;;;;5002364;28;20462;-83
2022/12/10 11:11:40;;;;;;;50.22;23.00;;;0.60;99.90;;;;;;5036629;28;20655;-82
2022/12/10 11:14:30;;;;;;;49.88;24.35;;;0.60;99.90;;;;;;5036257;28;20188;-82
2022/12/10 11:17:21;;;;;;;61.10;24.40;;;0.60;99.90;;;;;;5019372;28;20581;-83
2022/12/10 11:20:00;;;;;;;49.08;26.13;;;0.50;99.90;;;;;;5018560;28;20603;-82
2022/12/10 11:22:33;;;;;;;46.92;23.80;;;0.30;99.90;;;;;;5018475;28;20192;-82
2022/12/10 11:25:00;;;;;;;46.88;21.85;;;0.50;99.90;;;;;;5026896;28;20177;-83
2022/12/10 11:28:10;;;;;;;49.20;26.35;;;0.40;99.90;;;;;;5006734;28;20197;-82
2022/12/10 11:30:45;;;;;;;47.92;23.80;;;0.50;99.90;;;;;;5006732;28;20221;-81
2022/12/10 11:33:24;;;;;;;46.05;22.85;;;0.70;99.90;;;;;;5018106;28;20181;-81
2022/12/10 11:36:05;;;;;;;49.63;25.05;;;0.70;99.90;;;;;;5018162;28;20550;-82
2022/12/10 11:38:50;;;;;;;52.45;26.15;;;0.70;99.90;;;;;;5018244;28;20600;-82
2022/12/10 11:41:24;;;;;;;51.28;25.73;;;0.90;99.90;;;;;;5035678;28;20176;-82
2022/12/10 11:44:10;;;;;;;47.70;24.20;;;0.80;99.90;;;;;;5018855;28;20203;-82
2022/12/10 11:46:42;;;;;;;51.33;26.52;;;1.00;99.90;;;;;;5022502;28;20177;-82
2022/12/10 11:49:34;;;;;;;49.03;23.98;;;1.20;99.90;;;;;;5035918;28;20534;-82
2022/12/10 11:52:34;;;;;;;48.65;25.63;;;1.40;99.90;;;;;;5035626;28;20643;-82
2022/12/10 11:55:37;;;;;;;49.80;23.50;;;1.50;99.90;;;;;;5017944;28;20184;-82
2022/12/10 11:58:12;;;;;;;48.08;25.30;;;1.50;99.90;;;;;;5019148;28;20192;-82
2022/12/10 12:00:48;;;;;;;45.50;24.92;;;1.60;99.90;;;;;;5035854;28;20617;-82
2022/12/10 12:03:32;;;;;;;47.00;25.15;;;2.00;99.90;;;;;;5017646;28;20176;-82
2022/12/10 12:06:15;;;;;;;45.97;23.88;;;1.70;99.90;;;;;;5017676;28;20179;-81
2022/12/10 12:09:06;;;;;;;49.78;24.83;;;1.70;99.90;;;;;;5018041;28;20230;-82
2022/12/10 12:11:43;;;;;;;48.97;24.90;;;1.80;99.90;;;;;;5017518;28;20217;-82
2022/12/10 12:14:24;;;;;;;48.95;26.50;;;2.00;99.90;;;;;;5035253;28;20552;-81
2022/12/10 12:17:17;;;;;;;35.88;21.80;;;2.10;99.90;;;;;;5035892;28;20166;-81
2022/12/10 12:19:50;;;;;;;43.38;21.50;;;2.20;99.90;;;;;;5017849;28;20575;-82
2022/12/10 12:22:27;;;;;;;41.08;21.10;;;2.20;99.90;;;;;;5016876;28;20273;-82
2022/12/10 12:24:59;;;;;;;35.08;20.23;;;2.30;99.90;;;;;;5017836;28;20248;-82
2022/12/10 12:27:37;;;;;;;37.67;21.40;;;2.30;99.90;;;;;;5016837;28;20195;-81
2022/12/10 12:30:03;;;;;;;35.72;20.33;;;2.30;99.90;;;;;;5034596;28;20164;-82
2022/12/10 12:32:38;;;;;;;41.17;20.73;;;2.50;99.90;;;;;;5017165;28;20362;-81
2022/12/10 12:35:22;;;;;;;36.20;20.17;;;2.40;99.90;;;;;;5035249;28;20164;-82
2022/12/10 12:37:56;;;;;;;33.95;18.67;;;2.40;99.90;;;;;;5036077;28;20172;-81
2022/12/10 12:40:29;;;;;;;32.13;17.80;;;2.50;99.90;;;;;;5018036;28;20269;-82
2022/12/10 12:43:09;;;;;;;32.10;19.17;;;2.50;99.90;;;;;;5018326;28;20182;-82
2022/12/10 12:45:45;;;;;;;36.75;20.17;;;2.20;99.90;;;;;;5035861;28;20170;-81
2022/12/10 12:48:27;;;;;;;36.35;22.48;;;2.30;99.90;;;;;;5038434;28;20158;-81
2022/12/10 12:51:03;;;;;;;36.20;18.58;;;2.50;99.90;;;;;;5018354;28;20641;-82